CheckWX is a tool to help pilots better visualize weather data.  It is not intended as a substitute for an official pre-flight weather briefing.

05:49:05 UTC

KAJO METAR
Corona Municipal Airport
Corona, California, USA
Current

53 mins ago

KAJO 180456Z AUTO 16005KT 10SM CLR 24/M03 A2997 RMK AO2 SLP140 T02391033
Observed
Nov-18 @ 04:56 UTC
Wind
  • 160° at 5 KTS
Visibility
10 SM
Flight Rules
VFR
Cloud Levels
  • Clear skies
Temperature
24°C / 75°F
Dewpoint
-3°C / 27°F
Humidity
16%
Altimeter
29.97" Hg
Pressure
1014.92 hPa
Previous

2 hours ago

KAJO 180356Z AUTO 10SM CLR 23/M03 RMK AO2 SLPNO T02281028 $
Observed
Nov-18 @ 03:56 UTC
Visibility
10 SM
Flight Rules
VFR
Cloud Levels
  • Clear skies
Temperature
23°C / 73°F
Dewpoint
-3°C / 27°F
Humidity
17%
Previous

3 hours ago

KAJO 180256Z AUTO 10SM CLR 24/M03 RMK AO2 SLPNO 6//// T02391028 $
Observed
Nov-18 @ 02:56 UTC
Visibility
10 SM
Flight Rules
VFR
Cloud Levels
  • Clear skies
Temperature
24°C / 75°F
Dewpoint
-3°C / 27°F
Humidity
16%